createdAt,value
2018-03-19T00:01:31.157Z,10.50
2018-03-19T00:03:58.761Z,8.00
2018-03-19T00:06:26.358Z,7.43
2018-03-19T00:08:53.990Z,6.60
2018-03-19T00:11:22.297Z,7.03
2018-03-19T00:13:49.936Z,12.13
2018-03-19T00:16:17.532Z,6.67
2018-03-19T00:18:45.143Z,8.90
2018-03-19T00:21:12.735Z,11.43
2018-03-19T00:23:40.356Z,8.10
2018-03-19T00:26:08.709Z,11.70
2018-03-19T00:28:36.336Z,6.40
2018-03-19T00:31:03.950Z,8.23
2018-03-19T00:33:32.333Z,7.27
2018-03-19T00:36:00.677Z,7.23
2018-03-19T00:38:28.293Z,7.20
2018-03-19T00:40:55.880Z,9.50
2018-03-19T00:43:24.416Z,8.50
2018-03-19T00:45:52.663Z,11.43
2018-03-19T00:48:21.059Z,6.17
2018-03-19T00:50:51.315Z,9.80
2018-03-19T00:53:18.899Z,8.07
2018-03-19T00:55:46.504Z,9.67
2018-03-19T00:58:14.854Z,9.17
2018-03-19T01:00:42.480Z,7.33
2018-03-19T01:03:10.068Z,10.20
2018-03-19T01:05:37.681Z,14.43
2018-03-19T01:08:05.276Z,10.97
2018-03-19T01:10:33.673Z,7.03
2018-03-19T01:13:01.262Z,11.47
2018-03-19T01:15:29.653Z,8.67
2018-03-19T01:17:57.246Z,15.50
2018-03-19T01:20:24.838Z,7.33
2018-03-19T01:22:53.542Z,9.10
2018-03-19T01:25:22.374Z,10.10
2018-03-19T01:27:49.987Z,9.73
2018-03-19T01:30:18.334Z,9.57
2018-03-19T01:32:45.960Z,8.80
2018-03-19T01:35:13.563Z,14.10
2018-03-19T01:37:41.158Z,9.07
2018-03-19T01:40:08.750Z,7.60
2018-03-19T01:42:36.352Z,9.33
2018-03-19T01:45:03.950Z,13.70
2018-03-19T01:47:31.561Z,6.87
2018-03-19T01:49:59.145Z,9.20
2018-03-19T01:52:39.423Z,11.30
2018-03-19T01:55:07.002Z,8.57
2018-03-19T01:57:34.580Z,13.00
2018-03-19T02:00:02.209Z,12.03
2018-03-19T02:02:29.825Z,9.60
2018-03-19T02:04:57.458Z,10.87
2018-03-19T02:07:25.068Z,12.50
2018-03-19T02:09:53.728Z,8.23
2018-03-19T02:12:21.313Z,11.53
2018-03-19T02:14:48.966Z,7.23
2018-03-19T02:17:17.327Z,9.07
2018-03-19T02:19:44.951Z,10.30
2018-03-19T02:22:12.560Z,13.63
2018-03-19T02:24:40.973Z,8.80
2018-03-19T02:27:08.580Z,11.47
2018-03-19T02:29:36.985Z,13.23
2018-03-19T02:32:05.371Z,12.77
2018-03-19T02:34:32.971Z,8.03
2018-03-19T02:37:00.610Z,12.37
2018-03-19T02:39:28.200Z,11.50
2018-03-19T02:41:55.820Z,12.40
2018-03-19T02:44:24.338Z,10.40
2018-03-19T02:46:52.613Z,9.40
2018-03-19T02:49:20.989Z,10.03
2018-03-19T02:51:48.596Z,9.20
2018-03-19T02:54:16.970Z,12.00
2018-03-19T02:56:45.368Z,15.33
2018-03-19T02:59:12.954Z,10.77
2018-03-19T03:01:40.537Z,8.63
2018-03-19T03:04:08.136Z,10.37
2018-03-19T03:06:35.756Z,12.80
2018-03-19T03:09:03.371Z,13.07
2018-03-19T03:11:30.982Z,11.33
2018-03-19T03:13:58.581Z,12.13
2018-03-19T03:16:26.195Z,9.07
2018-03-19T03:18:54.902Z,10.83
2018-03-19T03:21:23.760Z,12.97
2018-03-19T03:23:51.358Z,13.27
2018-03-19T03:26:19.725Z,13.47
2018-03-19T03:28:47.384Z,14.60
2018-03-19T03:31:14.964Z,9.23
2018-03-19T03:33:43.321Z,11.30
2018-03-19T03:36:10.952Z,11.90
2018-03-19T03:38:38.551Z,11.97
2018-03-19T03:41:06.920Z,11.90
2018-03-19T03:43:34.515Z,7.80
2018-03-19T03:46:02.143Z,9.50
2018-03-19T03:48:29.724Z,12.27
2018-03-19T03:50:58.089Z,10.37
2018-03-19T03:53:26.448Z,10.07
2018-03-19T03:55:54.085Z,12.97
2018-03-19T03:58:22.714Z,18.53
2018-03-19T04:00:51.071Z,15.83
2018-03-19T04:03:18.676Z,14.37
2018-03-19T04:05:46.282Z,14.00
2018-03-19T04:08:13.887Z,15.27
2018-03-19T04:10:42.234Z,14.33
2018-03-19T04:13:09.851Z,14.57
2018-03-19T04:15:37.448Z,19.53
2018-03-19T04:18:05.057Z,10.80
2018-03-19T04:20:32.658Z,12.57
2018-03-19T04:23:00.272Z,10.80
2018-03-19T04:25:27.884Z,13.27
2018-03-19T04:27:55.490Z,14.10
2018-03-19T04:30:24.132Z,16.10
2018-03-19T04:32:52.233Z,8.50
2018-03-19T04:35:20.628Z,19.97
2018-03-19T04:37:48.218Z,11.63
2018-03-19T04:40:16.591Z,12.30
2018-03-19T04:42:44.168Z,9.23
2018-03-19T04:45:11.819Z,16.30
2018-03-19T04:47:40.198Z,12.80
2018-03-19T04:50:07.807Z,12.03
2018-03-19T04:52:36.171Z,9.70
2018-03-19T04:55:03.820Z,13.87
2018-03-19T04:57:31.456Z,13.77
2018-03-19T04:59:59.055Z,11.17
2018-03-19T05:02:27.429Z,14.83
2018-03-19T05:04:55.033Z,14.47
2018-03-19T05:07:23.574Z,9.77
2018-03-19T05:09:51.941Z,9.93
2018-03-19T05:12:19.563Z,11.80
2018-03-19T05:14:47.155Z,13.73
2018-03-19T05:17:14.740Z,11.57
2018-03-19T05:19:43.127Z,14.80
2018-03-19T05:22:10.722Z,15.27
2018-03-19T05:24:38.336Z,11.83
2018-03-19T05:27:06.698Z,11.93
2018-03-19T05:29:34.317Z,12.77
2018-03-19T05:32:01.914Z,15.60
2018-03-19T05:34:29.522Z,12.60
2018-03-19T05:36:57.117Z,13.30
2018-03-19T05:39:24.709Z,14.50
2018-03-19T05:41:53.619Z,17.80
2018-03-19T05:44:21.272Z,12.73
2018-03-19T05:46:49.697Z,14.70
2018-03-19T05:49:17.300Z,14.03
2018-03-19T05:51:45.673Z,13.13
2018-03-19T05:54:13.312Z,10.23
2018-03-19T05:56:40.982Z,13.43
2018-03-19T05:59:08.567Z,15.43
2018-03-19T06:01:36.947Z,9.40
2018-03-19T06:04:05.352Z,16.10
2018-03-19T06:06:32.946Z,12.47
2018-03-19T06:09:00.572Z,16.20
2018-03-19T06:11:28.157Z,12.50
2018-03-19T06:13:55.784Z,11.03
2018-03-19T06:16:24.298Z,12.20
2018-03-19T06:18:52.576Z,13.40
2018-03-19T06:21:20.185Z,11.10
2018-03-19T06:23:48.575Z,10.20
2018-03-19T06:26:16.191Z,13.60
2018-03-19T06:28:43.820Z,13.30
2018-03-19T06:31:11.407Z,10.20
2018-03-19T06:33:39.007Z,19.20
2018-03-19T06:36:16.314Z,19.77
2018-03-19T06:38:43.943Z,9.83
2018-03-19T06:41:12.335Z,10.07
2018-03-19T06:43:39.939Z,11.00
2018-03-19T06:46:07.544Z,16.60
2018-03-19T06:48:35.951Z,12.37
2018-03-19T06:51:03.572Z,14.03
2018-03-19T06:53:31.954Z,11.70
2018-03-19T06:56:00.392Z,11.20
2018-03-19T06:58:27.968Z,17.23
2018-03-19T07:00:55.665Z,12.90
2018-03-19T07:03:24.022Z,8.27
2018-03-19T07:05:52.261Z,12.80
2018-03-19T07:08:19.872Z,18.83
2018-03-19T07:10:49.040Z,11.40
2018-03-19T07:13:16.652Z,10.97
2018-03-19T07:15:44.249Z,15.30
2018-03-19T07:18:11.876Z,11.27
2018-03-19T07:20:39.466Z,13.60
2018-03-19T07:23:07.084Z,14.93
2018-03-19T07:25:34.702Z,15.07
2018-03-19T07:28:02.411Z,13.07
2018-03-19T07:30:30.004Z,14.97
2018-03-19T07:32:57.623Z,13.57
2018-03-19T07:35:25.963Z,10.07
2018-03-19T07:37:54.828Z,13.53
2018-03-19T07:40:23.258Z,13.30
2018-03-19T07:42:52.403Z,9.97
2018-03-19T07:45:20.024Z,14.90
2018-03-19T07:47:48.382Z,32.23
2018-03-19T07:50:15.984Z,61.37
2018-03-19T07:52:43.564Z,15.50
2018-03-19T07:55:11.166Z,14.37
2018-03-19T07:57:39.522Z,11.27
2018-03-19T08:00:07.153Z,17.33
2018-03-19T08:02:34.747Z,12.50
2018-03-19T08:05:02.351Z,15.50
2018-03-19T08:07:29.950Z,11.40
2018-03-19T08:09:57.577Z,13.07
2018-03-19T08:12:25.186Z,29.67
2018-03-19T08:14:52.796Z,14.20
2018-03-19T08:17:20.419Z,12.80
2018-03-19T08:19:48.019Z,10.53
2018-03-19T08:22:15.630Z,22.57
2018-03-19T08:24:43.223Z,9.40
2018-03-19T08:27:10.847Z,10.37
2018-03-19T08:29:38.435Z,9.80
2018-03-19T08:32:06.842Z,7.30
2018-03-19T08:34:34.422Z,7.50
2018-03-19T08:37:02.059Z,8.40
2018-03-19T08:39:29.641Z,9.57
2018-03-19T08:41:57.214Z,8.57
2018-03-19T08:44:24.817Z,8.33
2018-03-19T08:46:54.475Z,11.10
2018-03-19T08:49:23.144Z,7.10
2018-03-19T08:51:50.736Z,10.13
2018-03-19T08:54:18.356Z,8.73
2018-03-19T08:56:45.952Z,7.43
2018-03-19T08:59:13.575Z,20.60
2018-03-19T09:01:41.176Z,9.63
2018-03-19T09:04:08.813Z,35.43
2018-03-19T09:06:36.381Z,8.00
2018-03-19T09:09:05.686Z,10.37
2018-03-19T09:11:33.266Z,13.63
2018-03-19T09:14:00.847Z,9.50
2018-03-19T09:16:29.236Z,14.30
2018-03-19T09:18:56.848Z,17.50
2018-03-19T09:21:24.460Z,7.10
2018-03-19T09:23:53.066Z,11.90
2018-03-19T09:26:20.683Z,6.10
2018-03-19T09:28:49.047Z,12.20
2018-03-19T09:31:16.698Z,10.23
2018-03-19T09:33:44.294Z,10.73
2018-03-19T09:36:11.913Z,7.83
2018-03-19T09:38:39.492Z,5.80
2018-03-19T09:41:07.858Z,7.90
2018-03-19T09:43:35.439Z,18.20
2018-03-19T09:46:03.794Z,9.07
2018-03-19T09:48:31.426Z,6.30
2018-03-19T09:50:59.032Z,16.67
2018-03-19T09:53:27.431Z,13.03
2018-03-19T09:55:55.028Z,7.40
2018-03-19T09:58:23.660Z,11.50
2018-03-19T10:00:53.208Z,11.87
2018-03-19T10:03:20.827Z,27.80
2018-03-19T10:05:49.186Z,13.07
2018-03-19T10:08:16.840Z,10.33
2018-03-19T10:10:44.425Z,8.00
2018-03-19T10:13:12.836Z,8.17
2018-03-19T10:15:40.417Z,9.33
2018-03-19T10:18:07.992Z,7.83
2018-03-19T10:20:35.615Z,5.93
2018-03-19T10:23:03.185Z,8.23
2018-03-19T10:25:30.786Z,7.57
2018-03-19T10:27:58.381Z,8.00
2018-03-19T10:30:26.004Z,7.43
2018-03-19T10:32:54.848Z,9.67
2018-03-19T10:35:23.094Z,6.27
2018-03-19T10:37:50.664Z,6.80
2018-03-19T10:40:18.261Z,7.00
2018-03-19T10:42:45.848Z,7.97
2018-03-19T10:45:13.494Z,7.27
2018-03-19T10:47:41.092Z,7.50
2018-03-19T10:50:09.432Z,9.40
2018-03-19T10:52:37.037Z,10.13
2018-03-19T10:55:04.613Z,6.13
2018-03-19T10:57:32.210Z,6.90
2018-03-19T10:59:59.794Z,8.77
2018-03-19T11:02:28.183Z,7.53
2018-03-19T11:08:08.056Z,9.60
2018-03-19T11:10:35.692Z,6.67
2018-03-19T11:13:04.037Z,7.33
2018-03-19T11:15:31.611Z,8.30
2018-03-19T11:17:59.220Z,5.90
2018-03-19T11:20:26.820Z,10.07
2018-03-19T11:22:54.435Z,8.10
2018-03-19T11:25:23.051Z,6.73
2018-03-19T11:27:50.664Z,7.03
2018-03-19T11:30:19.014Z,9.87
2018-03-19T11:32:46.628Z,9.50
2018-03-19T11:35:14.216Z,6.67
2018-03-19T11:37:41.827Z,9.63
2018-03-19T11:40:10.164Z,6.90
2018-03-19T11:42:37.757Z,10.87
2018-03-19T11:45:06.125Z,6.60
2018-03-19T11:47:33.710Z,8.43
2018-03-19T11:50:01.311Z,8.20
2018-03-19T11:52:28.931Z,5.97
2018-03-19T11:54:56.548Z,6.57
2018-03-19T11:57:24.140Z,9.60
2018-03-19T11:59:54.125Z,5.37
2018-03-19T12:02:21.748Z,6.47
2018-03-19T12:04:49.385Z,7.47
2018-03-19T12:07:17.711Z,6.23
2018-03-19T12:09:45.327Z,6.10
2018-03-19T12:12:12.929Z,6.30
2018-03-19T12:14:40.551Z,7.43
2018-03-19T12:17:08.130Z,5.77
2018-03-19T12:19:35.723Z,5.23
2018-03-19T12:22:03.340Z,5.23
2018-03-19T12:24:30.912Z,5.83
2018-03-19T12:26:58.524Z,5.47
2018-03-19T12:29:26.888Z,5.20
2018-03-19T12:31:54.498Z,4.90
2018-03-19T12:34:23.097Z,8.30
2018-03-19T12:36:50.696Z,8.30
2018-03-19T12:39:18.280Z,5.20
2018-03-19T12:41:46.633Z,6.63
2018-03-19T12:44:14.213Z,5.47
2018-03-19T12:46:42.569Z,6.50
2018-03-19T12:49:10.152Z,5.00
2018-03-19T12:51:38.541Z,6.43
2018-03-19T12:54:06.110Z,6.73
2018-03-19T12:56:33.701Z,4.77
2018-03-19T12:59:01.304Z,6.03
2018-03-19T13:01:29.732Z,15.07
2018-03-19T13:03:57.298Z,5.43
2018-03-19T13:06:24.892Z,5.93
2018-03-19T13:08:54.576Z,7.27
2018-03-19T13:11:23.135Z,4.73
2018-03-19T13:13:50.750Z,5.53
2018-03-19T13:16:19.099Z,5.07
2018-03-19T13:18:46.707Z,7.40
2018-03-19T13:21:14.294Z,6.10
2018-03-19T13:23:41.899Z,4.30
2018-03-19T13:26:10.265Z,5.77
2018-03-19T13:28:37.874Z,4.53
2018-03-19T13:31:05.454Z,5.57
2018-03-19T13:33:33.047Z,6.77
2018-03-19T13:36:00.656Z,10.10
2018-03-19T13:38:28.234Z,9.00
2018-03-19T13:40:55.854Z,4.80
2018-03-19T13:43:24.414Z,5.27
2018-03-19T13:45:52.784Z,7.70
2018-03-19T13:48:20.377Z,7.00
2018-03-19T13:50:48.002Z,7.30
2018-03-19T13:53:15.585Z,8.50
2018-03-19T13:55:43.984Z,8.57
2018-03-19T13:58:11.563Z,5.73
2018-03-19T14:00:39.155Z,9.60
2018-03-19T14:03:06.720Z,5.07
2018-03-19T14:05:34.344Z,6.40
2018-03-19T14:08:01.916Z,5.47
2018-03-19T14:10:29.536Z,4.10
2018-03-19T14:12:57.127Z,5.00
2018-03-19T14:15:24.702Z,5.13
2018-03-19T14:17:53.079Z,5.33
2018-03-19T14:20:20.660Z,6.13
2018-03-19T14:22:48.283Z,5.97
2018-03-19T14:25:15.879Z,5.90
2018-03-19T14:27:43.564Z,5.93
2018-03-19T14:30:11.092Z,6.57
2018-03-19T14:32:38.692Z,7.87
2018-03-19T14:35:06.276Z,6.20
2018-03-19T14:37:33.882Z,7.70
2018-03-19T14:40:01.484Z,6.43
2018-03-19T14:42:29.112Z,7.53
2018-03-19T14:44:57.481Z,6.13
2018-03-19T14:47:25.899Z,7.27
2018-03-19T14:49:54.759Z,5.33
2018-03-19T14:52:24.324Z,11.53
2018-03-19T14:54:52.529Z,5.10
2018-03-19T14:57:20.876Z,5.77
2018-03-19T14:59:48.473Z,10.00
2018-03-19T15:02:16.812Z,5.57
2018-03-19T15:04:44.404Z,8.20
2018-03-19T15:07:11.991Z,5.80
2018-03-19T15:09:39.600Z,6.00
2018-03-19T15:12:07.191Z,5.30
2018-03-19T15:14:35.557Z,7.17
2018-03-19T15:17:03.148Z,5.30
2018-03-19T15:19:30.760Z,5.57
2018-03-19T15:21:58.355Z,8.17
2018-03-19T15:24:25.961Z,9.23
2018-03-19T15:26:54.333Z,11.67
2018-03-19T15:29:22.639Z,16.13
2018-03-19T15:31:50.237Z,9.37
2018-03-19T15:34:17.838Z,7.53
2018-03-19T15:36:45.461Z,10.27
2018-03-19T15:39:13.048Z,8.30
2018-03-19T15:41:40.667Z,7.50
2018-03-19T15:44:09.036Z,12.83
2018-03-19T15:46:37.423Z,11.03
2018-03-19T15:49:05.777Z,11.17
2018-03-19T15:51:33.403Z,13.23
2018-03-19T15:54:00.989Z,7.90
2018-03-19T15:56:28.612Z,6.37
2018-03-19T15:58:56.199Z,11.87
2018-03-19T16:01:24.597Z,11.70
2018-03-19T16:03:53.348Z,9.33
2018-03-19T16:06:20.980Z,9.23
2018-03-19T16:08:48.582Z,8.17
2018-03-19T16:11:16.160Z,7.20
2018-03-19T16:13:43.761Z,7.97
2018-03-19T16:16:11.341Z,9.00
2018-03-19T16:18:38.940Z,6.87
2018-03-19T16:21:06.531Z,7.10
2018-03-19T16:23:34.139Z,7.10
2018-03-19T16:26:01.734Z,7.27
2018-03-19T16:28:30.124Z,7.13
2018-03-19T16:30:58.474Z,8.30
2018-03-19T16:33:26.091Z,7.93
2018-03-19T16:35:54.282Z,5.90
2018-03-19T16:38:22.348Z,9.20
2018-03-19T16:40:49.928Z,6.60
2018-03-19T16:43:17.510Z,7.17
2018-03-19T16:45:45.124Z,8.87
2018-03-19T16:48:12.724Z,7.87
2018-03-19T16:50:40.332Z,7.33
2018-03-19T16:53:07.929Z,9.87
2018-03-19T16:55:35.524Z,9.53
2018-03-19T16:58:03.886Z,9.00
2018-03-19T17:00:31.494Z,7.73
2018-03-19T17:02:59.093Z,13.40
2018-03-19T17:05:26.683Z,7.20
2018-03-19T17:07:55.035Z,7.90
2018-03-19T17:10:23.482Z,6.50
2018-03-19T17:12:51.091Z,11.17
2018-03-19T17:15:19.447Z,9.00
2018-03-19T17:17:47.048Z,13.67
2018-03-19T17:20:14.642Z,10.40
2018-03-19T17:22:42.260Z,11.53
2018-03-19T17:25:09.876Z,9.30
2018-03-19T17:27:37.480Z,17.03
2018-03-19T17:30:05.829Z,10.93
2018-03-19T17:32:33.459Z,28.23
2018-03-19T17:35:01.048Z,97.53
2018-03-19T17:37:28.645Z,92.23
2018-03-19T17:39:56.243Z,70.30
2018-03-19T17:42:23.894Z,39.90
2018-03-19T17:44:51.478Z,21.70
2018-03-19T17:47:19.071Z,19.00
2018-03-19T17:49:47.467Z,33.20
2018-03-19T17:52:15.053Z,22.70
2018-03-19T17:54:42.684Z,30.53
2018-03-19T17:57:10.269Z,24.97
2018-03-19T17:59:37.870Z,29.97
2018-03-19T18:02:05.470Z,21.07
2018-03-19T18:04:33.105Z,23.83
2018-03-19T18:07:01.485Z,21.30
2018-03-19T18:09:29.859Z,25.23
2018-03-19T18:11:58.236Z,33.27
2018-03-19T18:14:26.651Z,19.67
2018-03-19T18:16:54.245Z,27.43
2018-03-19T18:19:22.296Z,20.93
2018-03-19T18:21:49.896Z,18.00
2018-03-19T18:24:17.476Z,8.73
2018-03-19T18:26:45.077Z,9.57
2018-03-19T18:29:12.654Z,5.80
2018-03-19T18:31:40.276Z,5.83
2018-03-19T18:34:07.852Z,11.40
2018-03-19T18:36:35.484Z,9.20
2018-03-19T18:39:03.091Z,9.17
2018-03-19T18:41:30.693Z,11.57
2018-03-19T18:43:59.063Z,13.63
2018-03-19T18:46:27.453Z,19.17
2018-03-19T18:48:55.045Z,27.47
2018-03-19T18:51:23.733Z,13.97
2018-03-19T18:53:51.304Z,9.33
2018-03-19T18:56:18.893Z,11.70
2018-03-19T18:58:46.524Z,9.77
2018-03-19T19:01:14.128Z,9.10
2018-03-19T19:03:42.523Z,9.47
2018-03-19T19:06:10.121Z,14.03
2018-03-19T19:08:37.742Z,8.77
2018-03-19T19:11:05.322Z,11.77
2018-03-19T19:13:32.933Z,8.07
2018-03-19T19:16:00.520Z,7.37
2018-03-19T19:18:28.129Z,9.80
2018-03-19T19:20:55.711Z,9.10
2018-03-19T19:23:24.790Z,6.07
2018-03-19T19:25:53.126Z,11.47
2018-03-19T19:28:20.746Z,8.67
2018-03-19T19:30:49.100Z,5.90
2018-03-19T19:33:16.703Z,5.53
2018-03-19T19:35:45.050Z,7.40
2018-03-19T19:38:12.634Z,15.10
2018-03-19T19:40:41.005Z,33.30
2018-03-19T19:43:09.352Z,10.37
2018-03-19T19:45:36.949Z,9.03
2018-03-19T19:48:05.316Z,13.53
2018-03-19T19:50:33.703Z,9.50
2018-03-19T19:53:02.066Z,7.30
2018-03-19T19:55:30.446Z,10.97
2018-03-19T19:57:58.038Z,7.70
2018-03-19T20:00:25.652Z,8.03
2018-03-19T20:02:54.510Z,10.93
2018-03-19T20:05:23.104Z,7.33
2018-03-19T20:07:50.744Z,12.10
2018-03-19T20:10:18.333Z,11.87
2018-03-19T20:12:45.954Z,8.17
2018-03-19T20:15:13.564Z,9.60
2018-03-19T20:17:41.183Z,7.17
2018-03-19T20:20:08.772Z,6.63
2018-03-19T20:22:36.376Z,6.13
2018-03-19T20:25:04.740Z,7.63
2018-03-19T20:27:33.135Z,12.23
2018-03-19T20:30:00.741Z,7.10
2018-03-19T20:32:28.383Z,6.50
2018-03-19T20:34:55.988Z,10.80
2018-03-19T20:37:24.785Z,6.80
2018-03-19T20:39:53.599Z,12.13
2018-03-19T20:42:21.206Z,8.70
2018-03-19T20:44:48.838Z,8.00
2018-03-19T20:47:16.444Z,11.83
2018-03-19T20:49:44.073Z,9.60
2018-03-19T20:52:11.668Z,9.07
2018-03-19T20:54:39.300Z,9.40
2018-03-19T20:57:06.876Z,8.40
2018-03-19T20:59:34.473Z,7.90
2018-03-19T21:02:02.831Z,5.77
2018-03-19T21:04:31.204Z,7.90
2018-03-19T21:06:58.790Z,10.97
2018-03-19T21:09:27.173Z,7.77
2018-03-19T21:11:54.771Z,6.70
2018-03-19T21:14:23.692Z,9.33
2018-03-19T21:16:51.287Z,7.53
2018-03-19T21:19:18.922Z,8.70
2018-03-19T21:21:47.290Z,6.90
2018-03-19T21:24:14.882Z,6.53
2018-03-19T21:26:42.480Z,8.17
2018-03-19T21:29:10.080Z,11.40
2018-03-19T21:31:38.465Z,9.70
2018-03-19T21:34:06.834Z,8.20
2018-03-19T21:36:35.196Z,7.30
2018-03-19T21:39:02.772Z,6.97
2018-03-19T21:41:31.172Z,6.50
2018-03-19T21:43:58.783Z,7.83
2018-03-19T21:46:26.363Z,6.03
2018-03-19T21:48:53.969Z,6.40
2018-03-19T21:51:22.361Z,14.00
2018-03-19T21:53:49.970Z,8.67
2018-03-19T21:56:18.373Z,11.90
2018-03-19T21:58:46.005Z,8.30
2018-03-19T22:01:13.584Z,8.67
2018-03-19T22:03:41.967Z,6.70
2018-03-19T22:06:09.540Z,8.67
2018-03-19T22:08:37.183Z,8.47
2018-03-19T22:11:04.762Z,10.03
2018-03-19T22:13:32.345Z,8.73
2018-03-19T22:15:59.955Z,9.23
2018-03-19T22:18:28.315Z,13.00
2018-03-19T22:20:56.729Z,8.07
2018-03-19T22:23:24.369Z,8.93
2018-03-19T22:25:52.755Z,7.03
2018-03-19T22:28:20.351Z,9.80
2018-03-19T22:30:47.964Z,10.63
2018-03-19T22:33:16.340Z,8.27
2018-03-19T22:35:44.692Z,8.20
2018-03-19T22:38:12.306Z,9.80
2018-03-19T22:40:39.882Z,8.20
2018-03-19T22:43:07.499Z,10.03
2018-03-19T22:45:35.850Z,20.40
2018-03-19T22:48:03.448Z,9.33
2018-03-19T22:50:31.036Z,9.50
2018-03-19T22:52:58.663Z,10.80
2018-03-19T22:55:27.027Z,11.63
2018-03-19T22:57:55.371Z,8.87
2018-03-19T23:00:23.820Z,9.33
2018-03-19T23:02:51.426Z,14.00
2018-03-19T23:05:21.917Z,9.87
2018-03-19T23:07:49.503Z,12.50
2018-03-19T23:10:17.132Z,9.30
2018-03-19T23:12:44.732Z,13.00
2018-03-19T23:15:12.373Z,14.63
2018-03-19T23:17:39.962Z,13.87
2018-03-19T23:20:07.600Z,15.33
2018-03-19T23:22:35.208Z,13.77
2018-03-19T23:25:02.904Z,12.27
2018-03-19T23:27:30.506Z,14.40
2018-03-19T23:29:58.100Z,15.00
2018-03-19T23:32:25.726Z,17.20
2018-03-19T23:34:54.052Z,14.73
2018-03-19T23:37:22.343Z,36.27
2018-03-19T23:39:49.944Z,23.13
2018-03-19T23:42:17.564Z,29.20
2018-03-19T23:44:45.168Z,12.97
2018-03-19T23:47:13.552Z,11.67
2018-03-19T23:49:41.927Z,12.53
2018-03-19T23:52:10.320Z,8.40
2018-03-19T23:54:38.674Z,12.40
2018-03-19T23:57:06.293Z,34.50
2018-03-19T23:59:33.896Z,14.20
